sensor_id;sensor_type;location;lat;lon;timestamp;temperature;humidity
40960;DHT22;27842;52.272;8.052;2023-07-20T00:00:59;20.10;78.50
40960;DHT22;27842;52.272;8.052;2023-07-20T00:03:25;20.00;78.60
40960;DHT22;27842;52.272;8.052;2023-07-20T00:05:51;20.00;78.60
40960;DHT22;27842;52.272;8.052;2023-07-20T00:08:18;20.00;78.70
40960;DHT22;27842;52.272;8.052;2023-07-20T00:10:43;19.90;78.60
40960;DHT22;27842;52.272;8.052;2023-07-20T00:13:09;19.90;78.70
40960;DHT22;27842;52.272;8.052;2023-07-20T00:15:35;19.90;78.70
40960;DHT22;27842;52.272;8.052;2023-07-20T00:18:00;19.90;79.00
40960;DHT22;27842;52.272;8.052;2023-07-20T00:20:26;19.90;78.90
40960;DHT22;27842;52.272;8.052;2023-07-20T00:22:51;19.80;79.00
40960;DHT22;27842;52.272;8.052;2023-07-20T00:25:17;19.80;79.00
40960;DHT22;27842;52.272;8.052;2023-07-20T00:27:43;19.80;79.00
40960;DHT22;27842;52.272;8.052;2023-07-20T00:30:08;19.80;79.00
40960;DHT22;27842;52.272;8.052;2023-07-20T00:32:34;19.80;79.70
40960;DHT22;27842;52.272;8.052;2023-07-20T00:34:59;19.80;79.30
40960;DHT22;27842;52.272;8.052;2023-07-20T00:37:25;19.70;79.30
40960;DHT22;27842;52.272;8.052;2023-07-20T00:39:50;19.70;79.40
40960;DHT22;27842;52.272;8.052;2023-07-20T00:42:16;19.70;79.40
40960;DHT22;27842;52.272;8.052;2023-07-20T00:44:41;19.70;79.60
40960;DHT22;27842;52.272;8.052;2023-07-20T00:47:07;19.70;79.50
40960;DHT22;27842;52.272;8.052;2023-07-20T00:49:32;19.70;79.60
40960;DHT22;27842;52.272;8.052;2023-07-20T00:51:59;19.70;79.70
40960;DHT22;27842;52.272;8.052;2023-07-20T00:54:25;19.70;79.60
40960;DHT22;27842;52.272;8.052;2023-07-20T00:56:51;19.60;79.70
40960;DHT22;27842;52.272;8.052;2023-07-20T00:59:17;19.60;79.70
40960;DHT22;27842;52.272;8.052;2023-07-20T01:01:43;19.60;80.10
40960;DHT22;27842;52.272;8.052;2023-07-20T01:04:08;19.60;79.90
40960;DHT22;27842;52.272;8.052;2023-07-20T01:06:43;19.50;80.00
40960;DHT22;27842;52.272;8.052;2023-07-20T01:09:17;19.60;80.30
40960;DHT22;27842;52.272;8.052;2023-07-20T01:14:24;19.50;80.30
40960;DHT22;27842;52.272;8.052;2023-07-20T01:16:50;19.50;80.90
40960;DHT22;27842;52.272;8.052;2023-07-20T01:19:17;19.50;80.60
40960;DHT22;27842;52.272;8.052;2023-07-20T01:21:57;19.50;81.00
40960;DHT22;27842;52.272;8.052;2023-07-20T01:27:14;19.40;80.80
40960;DHT22;27842;52.272;8.052;2023-07-20T01:29:54;19.40;80.70
40960;DHT22;27842;52.272;8.052;2023-07-20T01:32:26;19.30;80.70
40960;DHT22;27842;52.272;8.052;2023-07-20T01:34:52;19.40;80.90
40960;DHT22;27842;52.272;8.052;2023-07-20T01:37:18;19.30;80.90
40960;DHT22;27842;52.272;8.052;2023-07-20T01:39:45;19.30;80.90
40960;DHT22;27842;52.272;8.052;2023-07-20T01:42:11;19.30;80.90
40960;DHT22;27842;52.272;8.052;2023-07-20T01:44:37;19.30;80.80
40960;DHT22;27842;52.272;8.052;2023-07-20T01:47:02;19.30;81.00
40960;DHT22;27842;52.272;8.052;2023-07-20T01:49:28;19.30;80.90
40960;DHT22;27842;52.272;8.052;2023-07-20T01:51:53;19.30;80.90
40960;DHT22;27842;52.272;8.052;2023-07-20T01:54:19;19.30;80.80
40960;DHT22;27842;52.272;8.052;2023-07-20T01:56:44;19.30;81.00
40960;DHT22;27842;52.272;8.052;2023-07-20T01:59:10;19.30;82.20
40960;DHT22;27842;52.272;8.052;2023-07-20T02:01:35;19.30;82.00
40960;DHT22;27842;52.272;8.052;2023-07-20T02:04:00;19.20;81.30
40960;DHT22;27842;52.272;8.052;2023-07-20T02:06:26;19.20;83.70
40960;DHT22;27842;52.272;8.052;2023-07-20T02:08:51;19.10;82.30
40960;DHT22;27842;52.272;8.052;2023-07-20T02:11:18;19.10;81.80
40960;DHT22;27842;52.272;8.052;2023-07-20T02:13:43;19.00;82.50
40960;DHT22;27842;52.272;8.052;2023-07-20T02:16:09;18.90;82.30
40960;DHT22;27842;52.272;8.052;2023-07-20T02:18:34;18.90;83.90
40960;DHT22;27842;52.272;8.052;2023-07-20T02:21:02;18.80;82.60
40960;DHT22;27842;52.272;8.052;2023-07-20T02:23:27;18.80;82.80
40960;DHT22;27842;52.272;8.052;2023-07-20T02:25:53;18.80;83.20
40960;DHT22;27842;52.272;8.052;2023-07-20T02:28:18;18.70;84.20
40960;DHT22;27842;52.272;8.052;2023-07-20T02:30:44;18.60;83.50
40960;DHT22;27842;52.272;8.052;2023-07-20T02:33:09;18.50;84.10
40960;DHT22;27842;52.272;8.052;2023-07-20T02:35:34;18.50;84.30
40960;DHT22;27842;52.272;8.052;2023-07-20T02:38:00;18.50;85.00
40960;DHT22;27842;52.272;8.052;2023-07-20T02:40:25;18.40;84.30
40960;DHT22;27842;52.272;8.052;2023-07-20T02:42:51;18.40;84.60
40960;DHT22;27842;52.272;8.052;2023-07-20T02:45:16;18.40;84.50
40960;DHT22;27842;52.272;8.052;2023-07-20T02:47:42;18.30;84.50
40960;DHT22;27842;52.272;8.052;2023-07-20T02:50:07;18.30;84.80
40960;DHT22;27842;52.272;8.052;2023-07-20T02:52:33;18.30;85.50
40960;DHT22;27842;52.272;8.052;2023-07-20T02:54:58;18.20;85.00
40960;DHT22;27842;52.272;8.052;2023-07-20T02:57:24;18.20;85.40
40960;DHT22;27842;52.272;8.052;2023-07-20T02:59:49;18.20;85.20
40960;DHT22;27842;52.272;8.052;2023-07-20T03:02:15;18.10;85.40
40960;DHT22;27842;52.272;8.052;2023-07-20T03:04:40;18.10;85.20
40960;DHT22;27842;52.272;8.052;2023-07-20T03:07:06;18.10;85.20
40960;DHT22;27842;52.272;8.052;2023-07-20T03:09:33;18.10;85.80
40960;DHT22;27842;52.272;8.052;2023-07-20T03:11:58;18.10;85.70
40960;DHT22;27842;52.272;8.052;2023-07-20T03:14:24;18.10;85.40
40960;DHT22;27842;52.272;8.052;2023-07-20T03:16:49;18.10;88.10
40960;DHT22;27842;52.272;8.052;2023-07-20T03:19:15;18.00;86.00
40960;DHT22;27842;52.272;8.052;2023-07-20T03:21:40;18.00;86.80
40960;DHT22;27842;52.272;8.052;2023-07-20T03:24:09;17.90;86.10
40960;DHT22;27842;52.272;8.052;2023-07-20T03:26:35;18.00;86.20
40960;DHT22;27842;52.272;8.052;2023-07-20T03:29:02;18.00;86.20
40960;DHT22;27842;52.272;8.052;2023-07-20T03:31:28;17.90;86.20
40960;DHT22;27842;52.272;8.052;2023-07-20T03:33:53;18.00;86.40
40960;DHT22;27842;52.272;8.052;2023-07-20T03:36:19;18.00;86.20
40960;DHT22;27842;52.272;8.052;2023-07-20T03:38:45;18.00;86.20
40960;DHT22;27842;52.272;8.052;2023-07-20T03:41:10;18.00;86.10
40960;DHT22;27842;52.272;8.052;2023-07-20T03:43:36;18.00;86.00
40960;DHT22;27842;52.272;8.052;2023-07-20T03:46:02;18.00;86.80
40960;DHT22;27842;52.272;8.052;2023-07-20T03:48:31;18.00;86.40
40960;DHT22;27842;52.272;8.052;2023-07-20T03:50:57;18.00;86.80
40960;DHT22;27842;52.272;8.052;2023-07-20T03:53:23;18.00;86.40
40960;DHT22;27842;52.272;8.052;2023-07-20T03:55:49;18.00;86.70
40960;DHT22;27842;52.272;8.052;2023-07-20T03:58:15;17.90;86.60
40960;DHT22;27842;52.272;8.052;2023-07-20T04:00:44;17.90;87.00
40960;DHT22;27842;52.272;8.052;2023-07-20T04:03:09;17.90;86.80
40960;DHT22;27842;52.272;8.052;2023-07-20T04:05:35;18.00;87.10
40960;DHT22;27842;52.272;8.052;2023-07-20T04:08:00;17.90;87.20
40960;DHT22;27842;52.272;8.052;2023-07-20T04:10:26;17.90;87.20
40960;DHT22;27842;52.272;8.052;2023-07-20T04:12:51;17.80;87.20
40960;DHT22;27842;52.272;8.052;2023-07-20T04:15:17;17.90;87.20
40960;DHT22;27842;52.272;8.052;2023-07-20T04:17:42;17.90;87.70
40960;DHT22;27842;52.272;8.052;2023-07-20T04:20:08;17.90;87.30
40960;DHT22;27842;52.272;8.052;2023-07-20T04:22:34;17.90;87.40
40960;DHT22;27842;52.272;8.052;2023-07-20T04:24:59;17.90;87.90
40960;DHT22;27842;52.272;8.052;2023-07-20T04:27:25;17.90;87.50
40960;DHT22;27842;52.272;8.052;2023-07-20T04:29:51;17.80;87.80
40960;DHT22;27842;52.272;8.052;2023-07-20T04:32:16;17.80;87.90
40960;DHT22;27842;52.272;8.052;2023-07-20T04:34:42;17.80;87.70
40960;DHT22;27842;52.272;8.052;2023-07-20T04:37:07;17.80;87.50
40960;DHT22;27842;52.272;8.052;2023-07-20T04:39:33;17.80;88.00
40960;DHT22;27842;52.272;8.052;2023-07-20T04:41:59;17.80;87.80
40960;DHT22;27842;52.272;8.052;2023-07-20T04:44:24;17.80;87.90
40960;DHT22;27842;52.272;8.052;2023-07-20T04:46:50;17.80;88.60
40960;DHT22;27842;52.272;8.052;2023-07-20T04:49:15;17.80;88.10
40960;DHT22;27842;52.272;8.052;2023-07-20T04:51:40;17.80;87.60
40960;DHT22;27842;52.272;8.052;2023-07-20T04:54:06;17.80;88.20
40960;DHT22;27842;52.272;8.052;2023-07-20T04:56:31;17.80;87.70
40960;DHT22;27842;52.272;8.052;2023-07-20T04:58:57;17.80;88.20
40960;DHT22;27842;52.272;8.052;2023-07-20T05:01:23;17.80;87.90
40960;DHT22;27842;52.272;8.052;2023-07-20T05:03:48;17.80;88.10
40960;DHT22;27842;52.272;8.052;2023-07-20T05:06:14;17.70;88.20
40960;DHT22;27842;52.272;8.052;2023-07-20T05:08:40;17.70;87.90
40960;DHT22;27842;52.272;8.052;2023-07-20T05:11:06;17.70;89.50
40960;DHT22;27842;52.272;8.052;2023-07-20T05:13:32;17.70;88.10
40960;DHT22;27842;52.272;8.052;2023-07-20T05:15:58;17.80;88.20
40960;DHT22;27842;52.272;8.052;2023-07-20T05:18:23;17.80;88.20
40960;DHT22;27842;52.272;8.052;2023-07-20T05:20:49;17.80;88.70
40960;DHT22;27842;52.272;8.052;2023-07-20T05:23:16;17.80;88.50
40960;DHT22;27842;52.272;8.052;2023-07-20T05:25:42;17.80;88.70
40960;DHT22;27842;52.272;8.052;2023-07-20T05:28:08;17.70;88.60
40960;DHT22;27842;52.272;8.052;2023-07-20T05:30:33;17.70;90.40
40960;DHT22;27842;52.272;8.052;2023-07-20T05:32:59;17.80;88.60
40960;DHT22;27842;52.272;8.052;2023-07-20T05:35:25;17.80;89.10
40960;DHT22;27842;52.272;8.052;2023-07-20T05:37:50;17.80;89.00
40960;DHT22;27842;52.272;8.052;2023-07-20T05:40:16;17.80;90.30
40960;DHT22;27842;52.272;8.052;2023-07-20T05:42:46;17.80;88.80
40960;DHT22;27842;52.272;8.052;2023-07-20T05:45:13;17.90;89.40
40960;DHT22;27842;52.272;8.052;2023-07-20T05:47:39;17.90;89.00
40960;DHT22;27842;52.272;8.052;2023-07-20T05:50:05;18.00;89.20
40960;DHT22;27842;52.272;8.052;2023-07-20T05:52:32;17.90;89.00
40960;DHT22;27842;52.272;8.052;2023-07-20T05:54:58;18.00;88.80
40960;DHT22;27842;52.272;8.052;2023-07-20T05:57:23;18.00;89.00
40960;DHT22;27842;52.272;8.052;2023-07-20T05:59:49;18.10;89.60
40960;DHT22;27842;52.272;8.052;2023-07-20T06:02:14;18.10;89.50
40960;DHT22;27842;52.272;8.052;2023-07-20T06:04:40;18.10;88.70
40960;DHT22;27842;52.272;8.052;2023-07-20T06:07:05;18.10;88.90
40960;DHT22;27842;52.272;8.052;2023-07-20T06:09:33;18.30;88.60
40960;DHT22;27842;52.272;8.052;2023-07-20T06:11:58;18.30;88.80
40960;DHT22;27842;52.272;8.052;2023-07-20T06:14:24;18.30;89.70
40960;DHT22;27842;52.272;8.052;2023-07-20T06:16:49;18.30;88.90
40960;DHT22;27842;52.272;8.052;2023-07-20T06:19:15;18.30;89.00
40960;DHT22;27842;52.272;8.052;2023-07-20T06:21:41;18.30;89.90
40960;DHT22;27842;52.272;8.052;2023-07-20T06:24:08;18.30;89.60
40960;DHT22;27842;52.272;8.052;2023-07-20T06:26:33;18.40;89.20
40960;DHT22;27842;52.272;8.052;2023-07-20T06:29:04;18.30;89.90
40960;DHT22;27842;52.272;8.052;2023-07-20T06:31:30;18.40;89.50
40960;DHT22;27842;52.272;8.052;2023-07-20T06:33:56;18.40;90.00
40960;DHT22;27842;52.272;8.052;2023-07-20T06:36:21;18.30;89.30
40960;DHT22;27842;52.272;8.052;2023-07-20T06:38:47;18.40;89.20
40960;DHT22;27842;52.272;8.052;2023-07-20T06:41:12;18.40;89.30
40960;DHT22;27842;52.272;8.052;2023-07-20T06:43:37;18.50;89.10
40960;DHT22;27842;52.272;8.052;2023-07-20T06:46:03;18.50;89.10
40960;DHT22;27842;52.272;8.052;2023-07-20T06:48:28;18.60;89.00
40960;DHT22;27842;52.272;8.052;2023-07-20T06:50:55;18.60;89.60
40960;DHT22;27842;52.272;8.052;2023-07-20T06:53:20;18.70;88.80
40960;DHT22;27842;52.272;8.052;2023-07-20T06:55:45;18.80;88.70
40960;DHT22;27842;52.272;8.052;2023-07-20T06:58:11;18.80;87.90
40960;DHT22;27842;52.272;8.052;2023-07-20T07:00:36;18.80;87.90
40960;DHT22;27842;52.272;8.052;2023-07-20T07:03:02;18.70;88.60
40960;DHT22;27842;52.272;8.052;2023-07-20T07:05:28;18.80;87.90
40960;DHT22;27842;52.272;8.052;2023-07-20T07:07:53;18.90;88.80
40960;DHT22;27842;52.272;8.052;2023-07-20T07:10:19;18.90;88.50
40960;DHT22;27842;52.272;8.052;2023-07-20T07:12:44;19.00;87.50
40960;DHT22;27842;52.272;8.052;2023-07-20T07:15:10;19.10;87.30
40960;DHT22;27842;52.272;8.052;2023-07-20T07:17:36;19.10;87.20
40960;DHT22;27842;52.272;8.052;2023-07-20T07:20:01;19.10;87.70
40960;DHT22;27842;52.272;8.052;2023-07-20T07:22:27;19.10;87.10
40960;DHT22;27842;52.272;8.052;2023-07-20T07:24:52;19.20;87.10
40960;DHT22;27842;52.272;8.052;2023-07-20T07:27:19;19.30;86.80
40960;DHT22;27842;52.272;8.052;2023-07-20T07:29:44;19.30;86.60
40960;DHT22;27842;52.272;8.052;2023-07-20T07:32:10;19.40;86.50
40960;DHT22;27842;52.272;8.052;2023-07-20T07:34:36;19.40;86.20
40960;DHT22;27842;52.272;8.052;2023-07-20T07:37:02;19.50;86.30
40960;DHT22;27842;52.272;8.052;2023-07-20T07:39:28;19.50;86.30
40960;DHT22;27842;52.272;8.052;2023-07-20T07:41:55;19.50;85.90
40960;DHT22;27842;52.272;8.052;2023-07-20T07:44:21;19.50;85.60
40960;DHT22;27842;52.272;8.052;2023-07-20T07:46:46;19.50;86.20
40960;DHT22;27842;52.272;8.052;2023-07-20T07:49:12;19.50;85.50
40960;DHT22;27842;52.272;8.052;2023-07-20T07:51:37;19.60;85.20
40960;DHT22;27842;52.272;8.052;2023-07-20T07:54:03;19.50;85.10
40960;DHT22;27842;52.272;8.052;2023-07-20T07:56:29;19.50;85.90
40960;DHT22;27842;52.272;8.052;2023-07-20T07:58:54;19.50;85.10
40960;DHT22;27842;52.272;8.052;2023-07-20T08:01:20;19.60;85.00
40960;DHT22;27842;52.272;8.052;2023-07-20T08:03:45;19.60;84.60
40960;DHT22;27842;52.272;8.052;2023-07-20T08:06:14;19.60;83.80
40960;DHT22;27842;52.272;8.052;2023-07-20T08:08:40;19.70;84.20
40960;DHT22;27842;52.272;8.052;2023-07-20T08:11:05;19.70;83.90
40960;DHT22;27842;52.272;8.052;2023-07-20T08:13:31;19.80;83.70
40960;DHT22;27842;52.272;8.052;2023-07-20T08:15:57;19.80;81.60
40960;DHT22;27842;52.272;8.052;2023-07-20T08:18:22;19.90;83.50
40960;DHT22;27842;52.272;8.052;2023-07-20T08:20:48;20.10;83.40
40960;DHT22;27842;52.272;8.052;2023-07-20T08:23:14;20.10;82.00
40960;DHT22;27842;52.272;8.052;2023-07-20T08:25:40;20.20;82.30
40960;DHT22;27842;52.272;8.052;2023-07-20T08:28:09;20.20;81.40
40960;DHT22;27842;52.272;8.052;2023-07-20T08:30:42;20.20;81.90
40960;DHT22;27842;52.272;8.052;2023-07-20T08:33:08;20.10;81.90
40960;DHT22;27842;52.272;8.052;2023-07-20T08:35:34;20.10;81.50
40960;DHT22;27842;52.272;8.052;2023-07-20T08:37:59;20.10;79.50
40960;DHT22;27842;52.272;8.052;2023-07-20T08:40:25;20.20;81.50
40960;DHT22;27842;52.272;8.052;2023-07-20T08:42:50;20.20;81.70
40960;DHT22;27842;52.272;8.052;2023-07-20T08:45:16;20.30;81.20
40960;DHT22;27842;52.272;8.052;2023-07-20T08:47:42;20.40;81.00
40960;DHT22;27842;52.272;8.052;2023-07-20T08:50:09;20.40;80.90
40960;DHT22;27842;52.272;8.052;2023-07-20T08:52:35;20.40;79.70
40960;DHT22;27842;52.272;8.052;2023-07-20T08:55:00;20.40;79.40
40960;DHT22;27842;52.272;8.052;2023-07-20T08:57:28;20.40;80.70
40960;DHT22;27842;52.272;8.052;2023-07-20T08:59:54;20.50;80.20
40960;DHT22;27842;52.272;8.052;2023-07-20T09:02:20;20.50;80.30
40960;DHT22;27842;52.272;8.052;2023-07-20T09:04:47;20.60;79.80
40960;DHT22;27842;52.272;8.052;2023-07-20T09:07:13;20.60;76.10
40960;DHT22;27842;52.272;8.052;2023-07-20T09:09:40;20.60;79.30
40960;DHT22;27842;52.272;8.052;2023-07-20T09:12:12;20.60;79.30
40960;DHT22;27842;52.272;8.052;2023-07-20T09:14:38;20.70;77.20
40960;DHT22;27842;52.272;8.052;2023-07-20T09:17:03;20.70;77.90
40960;DHT22;27842;52.272;8.052;2023-07-20T09:19:29;20.80;73.70
40960;DHT22;27842;52.272;8.052;2023-07-20T09:21:54;20.90;73.70
40960;DHT22;27842;52.272;8.052;2023-07-20T09:24:20;21.00;77.50
40960;DHT22;27842;52.272;8.052;2023-07-20T09:26:46;21.20;73.00
40960;DHT22;27842;52.272;8.052;2023-07-20T09:29:19;21.30;74.60
40960;DHT22;27842;52.272;8.052;2023-07-20T09:32:01;21.30;74.60
40960;DHT22;27842;52.272;8.052;2023-07-20T09:34:28;21.40;76.90
40960;DHT22;27842;52.272;8.052;2023-07-20T09:36:53;21.50;77.20
40960;DHT22;27842;52.272;8.052;2023-07-20T09:39:19;21.50;76.40
40960;DHT22;27842;52.272;8.052;2023-07-20T09:41:45;21.60;71.80
40960;DHT22;27842;52.272;8.052;2023-07-20T09:44:10;21.70;75.90
40960;DHT22;27842;52.272;8.052;2023-07-20T09:46:46;21.80;73.20
40960;DHT22;27842;52.272;8.052;2023-07-20T09:49:11;21.90;72.80
40960;DHT22;27842;52.272;8.052;2023-07-20T09:51:37;22.00;73.00
40960;DHT22;27842;52.272;8.052;2023-07-20T09:54:03;22.00;73.40
40960;DHT22;27842;52.272;8.052;2023-07-20T09:56:29;22.00;72.70
40960;DHT22;27842;52.272;8.052;2023-07-20T09:58:55;21.90;69.50
40960;DHT22;27842;52.272;8.052;2023-07-20T10:01:21;21.90;70.70
40960;DHT22;27842;52.272;8.052;2023-07-20T10:03:47;21.90;71.90
40960;DHT22;27842;52.272;8.052;2023-07-20T10:06:15;21.90;68.00
40960;DHT22;27842;52.272;8.052;2023-07-20T10:08:42;21.90;71.10
40960;DHT22;27842;52.272;8.052;2023-07-20T10:11:08;22.00;68.80
40960;DHT22;27842;52.272;8.052;2023-07-20T10:13:37;22.10;72.10
40960;DHT22;27842;52.272;8.052;2023-07-20T10:16:03;22.20;71.70
40960;DHT22;27842;52.272;8.052;2023-07-20T10:21:01;22.50;73.20
40960;DHT22;27842;52.272;8.052;2023-07-20T10:23:28;22.60;68.10
40960;DHT22;27842;52.272;8.052;2023-07-20T10:25:54;22.60;67.80
40960;DHT22;27842;52.272;8.052;2023-07-20T10:28:20;22.60;71.70
40960;DHT22;27842;52.272;8.052;2023-07-20T10:30:48;22.50;68.90
40960;DHT22;27842;52.272;8.052;2023-07-20T10:33:14;22.50;66.60
40960;DHT22;27842;52.272;8.052;2023-07-20T10:35:56;22.50;71.60
40960;DHT22;27842;52.272;8.052;2023-07-20T10:43:43;22.80;66.90
40960;DHT22;27842;52.272;8.052;2023-07-20T10:46:10;22.90;70.40
40960;DHT22;27842;52.272;8.052;2023-07-20T10:48:36;22.90;71.60
40960;DHT22;27842;52.272;8.052;2023-07-20T10:51:21;22.80;68.90
40960;DHT22;27842;52.272;8.052;2023-07-20T10:53:50;22.80;70.70
40960;DHT22;27842;52.272;8.052;2023-07-20T10:56:22;22.80;68.00
40960;DHT22;27842;52.272;8.052;2023-07-20T10:58:47;22.80;63.40
40960;DHT22;27842;52.272;8.052;2023-07-20T11:01:14;23.00;70.00
40960;DHT22;27842;52.272;8.052;2023-07-20T11:03:39;23.00;69.60
40960;DHT22;27842;52.272;8.052;2023-07-20T11:09:04;22.80;66.20
40960;DHT22;27842;52.272;8.052;2023-07-20T11:11:31;22.90;66.90
40960;DHT22;27842;52.272;8.052;2023-07-20T11:14:07;22.90;69.80
40960;DHT22;27842;52.272;8.052;2023-07-20T11:16:40;22.90;68.20
40960;DHT22;27842;52.272;8.052;2023-07-20T11:19:13;22.90;67.70
40960;DHT22;27842;52.272;8.052;2023-07-20T11:21:40;22.90;68.60
40960;DHT22;27842;52.272;8.052;2023-07-20T11:24:07;22.80;68.70
40960;DHT22;27842;52.272;8.052;2023-07-20T11:29:07;22.80;70.30
40960;DHT22;27842;52.272;8.052;2023-07-20T11:31:39;22.90;70.60
40960;DHT22;27842;52.272;8.052;2023-07-20T11:34:04;22.90;64.50
40960;DHT22;27842;52.272;8.052;2023-07-20T11:36:30;23.00;69.20
40960;DHT22;27842;52.272;8.052;2023-07-20T11:38:56;23.00;65.90
40960;DHT22;27842;52.272;8.052;2023-07-20T11:41:22;23.10;68.70
40960;DHT22;27842;52.272;8.052;2023-07-20T11:43:47;23.10;69.20
40960;DHT22;27842;52.272;8.052;2023-07-20T11:46:13;23.10;65.50
40960;DHT22;27842;52.272;8.052;2023-07-20T11:48:38;23.00;67.50
40960;DHT22;27842;52.272;8.052;2023-07-20T11:51:05;23.00;68.60
40960;DHT22;27842;52.272;8.052;2023-07-20T11:53:31;23.00;70.00
40960;DHT22;27842;52.272;8.052;2023-07-20T11:55:58;23.00;67.90
40960;DHT22;27842;52.272;8.052;2023-07-20T11:58:24;23.00;67.70
40960;DHT22;27842;52.272;8.052;2023-07-20T12:00:50;23.00;68.30
40960;DHT22;27842;52.272;8.052;2023-07-20T12:03:15;23.00;65.70
40960;DHT22;27842;52.272;8.052;2023-07-20T12:05:41;23.00;66.30
40960;DHT22;27842;52.272;8.052;2023-07-20T12:08:06;23.00;64.90
40960;DHT22;27842;52.272;8.052;2023-07-20T12:10:32;23.00;69.00
40960;DHT22;27842;52.272;8.052;2023-07-20T12:13:01;23.00;69.70
40960;DHT22;27842;52.272;8.052;2023-07-20T12:15:28;23.10;68.70
40960;DHT22;27842;52.272;8.052;2023-07-20T12:17:57;23.30;67.40
40960;DHT22;27842;52.272;8.052;2023-07-20T12:20:33;23.40;67.90
40960;DHT22;27842;52.272;8.052;2023-07-20T12:23:01;23.60;68.60
40960;DHT22;27842;52.272;8.052;2023-07-20T12:25:34;23.60;68.30
40960;DHT22;27842;52.272;8.052;2023-07-20T12:28:09;23.60;68.80
40960;DHT22;27842;52.272;8.052;2023-07-20T12:30:36;23.60;68.00
40960;DHT22;27842;52.272;8.052;2023-07-20T12:33:02;23.50;66.80
40960;DHT22;27842;52.272;8.052;2023-07-20T12:35:29;23.40;68.30
40960;DHT22;27842;52.272;8.052;2023-07-20T12:37:55;23.40;67.70
40960;DHT22;27842;52.272;8.052;2023-07-20T12:40:20;23.30;68.20
40960;DHT22;27842;52.272;8.052;2023-07-20T12:42:46;23.20;68.70
40960;DHT22;27842;52.272;8.052;2023-07-20T12:45:11;23.20;68.60
40960;DHT22;27842;52.272;8.052;2023-07-20T12:47:39;23.10;68.40
40960;DHT22;27842;52.272;8.052;2023-07-20T12:50:04;23.10;68.40
40960;DHT22;27842;52.272;8.052;2023-07-20T12:52:31;23.00;68.80
40960;DHT22;27842;52.272;8.052;2023-07-20T12:54:57;22.90;68.40
40960;DHT22;27842;52.272;8.052;2023-07-20T12:57:23;22.90;67.70
40960;DHT22;27842;52.272;8.052;2023-07-20T12:59:49;22.80;68.80
40960;DHT22;27842;52.272;8.052;2023-07-20T13:02:14;22.70;66.70
40960;DHT22;27842;52.272;8.052;2023-07-20T13:04:39;22.60;65.00
40960;DHT22;27842;52.272;8.052;2023-07-20T13:07:07;22.50;66.10
40960;DHT22;27842;52.272;8.052;2023-07-20T13:09:33;22.40;68.70
40960;DHT22;27842;52.272;8.052;2023-07-20T13:11:58;22.30;69.20
40960;DHT22;27842;52.272;8.052;2023-07-20T13:14:26;22.20;70.00
40960;DHT22;27842;52.272;8.052;2023-07-20T13:16:52;22.20;70.60
40960;DHT22;27842;52.272;8.052;2023-07-20T13:19:17;22.10;70.80
40960;DHT22;27842;52.272;8.052;2023-07-20T13:21:43;22.00;71.20
40960;DHT22;27842;52.272;8.052;2023-07-20T13:24:08;21.80;71.60
40960;DHT22;27842;52.272;8.052;2023-07-20T13:26:34;21.60;72.80
40960;DHT22;27842;52.272;8.052;2023-07-20T13:28:59;21.40;72.50
40960;DHT22;27842;52.272;8.052;2023-07-20T13:31:25;21.30;74.00
40960;DHT22;27842;52.272;8.052;2023-07-20T13:33:50;21.10;74.60
40960;DHT22;27842;52.272;8.052;2023-07-20T13:36:16;21.00;74.80
40960;DHT22;27842;52.272;8.052;2023-07-20T13:38:41;20.90;75.10
40960;DHT22;27842;52.272;8.052;2023-07-20T13:41:07;20.80;76.20
40960;DHT22;27842;52.272;8.052;2023-07-20T13:43:32;20.70;75.50
40960;DHT22;27842;52.272;8.052;2023-07-20T13:45:58;20.60;75.80
40960;DHT22;27842;52.272;8.052;2023-07-20T13:48:23;20.50;76.10
40960;DHT22;27842;52.272;8.052;2023-07-20T13:50:49;20.50;76.20
40960;DHT22;27842;52.272;8.052;2023-07-20T13:53:15;20.40;76.40
40960;DHT22;27842;52.272;8.052;2023-07-20T13:55:41;20.40;76.50
40960;DHT22;27842;52.272;8.052;2023-07-20T13:58:07;20.40;76.30
40960;DHT22;27842;52.272;8.052;2023-07-20T14:00:32;20.40;76.30
40960;DHT22;27842;52.272;8.052;2023-07-20T14:02:58;20.40;76.20
40960;DHT22;27842;52.272;8.052;2023-07-20T14:05:24;20.50;76.10
40960;DHT22;27842;52.272;8.052;2023-07-20T14:07:50;20.50;76.00
40960;DHT22;27842;52.272;8.052;2023-07-20T14:10:16;20.60;75.20
40960;DHT22;27842;52.272;8.052;2023-07-20T14:12:41;20.60;75.40
40960;DHT22;27842;52.272;8.052;2023-07-20T14:15:07;20.70;74.70
40960;DHT22;27842;52.272;8.052;2023-07-20T14:17:32;20.80;74.80
40960;DHT22;27842;52.272;8.052;2023-07-20T14:19:58;20.80;74.60
40960;DHT22;27842;52.272;8.052;2023-07-20T14:22:23;20.90;73.60
40960;DHT22;27842;52.272;8.052;2023-07-20T14:24:49;20.90;73.80
40960;DHT22;27842;52.272;8.052;2023-07-20T14:27:14;20.90;73.30
40960;DHT22;27842;52.272;8.052;2023-07-20T14:29:40;21.00;74.20
40960;DHT22;27842;52.272;8.052;2023-07-20T14:32:05;21.10;73.70
40960;DHT22;27842;52.272;8.052;2023-07-20T14:34:32;21.20;73.80
40960;DHT22;27842;52.272;8.052;2023-07-20T14:37:01;21.20;70.90
40960;DHT22;27842;52.272;8.052;2023-07-20T14:39:27;21.30;72.60
40960;DHT22;27842;52.272;8.052;2023-07-20T14:41:53;21.40;73.10
40960;DHT22;27842;52.272;8.052;2023-07-20T14:44:18;21.50;72.70
40960;DHT22;27842;52.272;8.052;2023-07-20T14:46:46;21.50;71.80
40960;DHT22;27842;52.272;8.052;2023-07-20T14:49:11;21.60;71.80
40960;DHT22;27842;52.272;8.052;2023-07-20T14:51:37;21.70;70.00
40960;DHT22;27842;52.272;8.052;2023-07-20T14:54:08;21.70;71.40
40960;DHT22;27842;52.272;8.052;2023-07-20T14:56:34;21.70;70.70
40960;DHT22;27842;52.272;8.052;2023-07-20T14:58:59;21.80;71.60
40960;DHT22;27842;52.272;8.052;2023-07-20T15:01:25;21.90;71.70
40960;DHT22;27842;52.272;8.052;2023-07-20T15:03:51;22.00;70.60
40960;DHT22;27842;52.272;8.052;2023-07-20T15:06:18;22.30;70.60
40960;DHT22;27842;52.272;8.052;2023-07-20T15:08:44;22.60;67.00
40960;DHT22;27842;52.272;8.052;2023-07-20T15:11:09;22.70;68.60
40960;DHT22;27842;52.272;8.052;2023-07-20T15:13:35;22.90;65.40
40960;DHT22;27842;52.272;8.052;2023-07-20T15:16:01;22.90;65.30
40960;DHT22;27842;52.272;8.052;2023-07-20T15:18:26;23.00;67.70
40960;DHT22;27842;52.272;8.052;2023-07-20T15:20:51;23.20;68.10
40960;DHT22;27842;52.272;8.052;2023-07-20T15:23:19;23.20;67.30
40960;DHT22;27842;52.272;8.052;2023-07-20T15:25:44;23.30;68.30
40960;DHT22;27842;52.272;8.052;2023-07-20T15:28:10;23.40;68.20
40960;DHT22;27842;52.272;8.052;2023-07-20T15:30:36;23.40;68.10
40960;DHT22;27842;52.272;8.052;2023-07-20T15:33:01;23.50;67.80
40960;DHT22;27842;52.272;8.052;2023-07-20T15:35:26;23.60;67.30
40960;DHT22;27842;52.272;8.052;2023-07-20T15:37:52;23.70;67.20
40960;DHT22;27842;52.272;8.052;2023-07-20T15:40:18;23.80;66.90
40960;DHT22;27842;52.272;8.052;2023-07-20T15:42:43;23.70;66.60